Time;durP1;ratioP1;P1;durP2;ratioP2;P2;SDS_P1;SDS_P2;PMS_P1;PMS_P2;Temp;Humidity;BMP_temperature;BMP_pressure;BME280_temperature;BME280_humidity;BME280_pressure;Samples;Min_cycle;Max_cycle;Signal;HPM_P1;HPM_P2
2021/11/18 00:00:28;;;;;;;2.80;1.00;;;21.60;61.10;;;;;;5067016;28;20187;-44
2021/11/18 00:02:54;;;;;;;0.77;0.60;;;21.60;60.60;;;;;;5101710;28;20047;-44
2021/11/18 00:05:22;;;;;;;0.80;0.65;;;21.50;60.50;;;;;;5102379;28;20028;-41
2021/11/18 00:07:49;;;;;;;1.92;0.75;;;21.50;60.50;;;;;;5102064;28;20048;-43
2021/11/18 00:10:20;;;;;;;0.90;0.60;;;21.50;60.30;;;;;;5101290;28;20529;-44
2021/11/18 00:12:47;;;;;;;2.40;0.63;;;21.50;60.30;;;;;;5101889;28;20036;-44
2021/11/18 00:15:13;;;;;;;0.63;0.47;;;21.50;60.30;;;;;;5102169;28;20096;-41
2021/11/18 00:17:40;;;;;;;2.33;0.63;;;21.50;60.20;;;;;;5103786;28;20032;-42
2021/11/18 00:20:07;;;;;;;0.77;0.77;;;21.50;60.30;;;;;;5106042;28;20024;-46
2021/11/18 00:22:33;;;;;;;1.75;0.70;;;21.50;59.90;;;;;;5105854;28;20070;-41
2021/11/18 00:25:00;;;;;;;1.15;0.80;;;21.50;59.90;;;;;;5105808;28;20042;-47
2021/11/18 00:27:27;;;;;;;1.20;1.00;;;21.40;60.00;;;;;;5105631;28;20107;-43
2021/11/18 00:29:54;;;;;;;0.85;0.70;;;21.40;59.90;;;;;;5105837;28;20495;-39
2021/11/18 00:32:20;;;;;;;1.33;0.80;;;21.40;59.90;;;;;;5105191;28;20042;-43
2021/11/18 00:34:46;;;;;;;0.82;0.75;;;21.40;60.30;;;;;;5105722;28;20087;-43
2021/11/18 00:37:12;;;;;;;0.93;0.70;;;21.40;60.10;;;;;;5105716;28;20442;-44
2021/11/18 00:39:38;;;;;;;0.70;0.67;;;21.40;59.90;;;;;;5093062;28;20025;-45
2021/11/18 00:42:05;;;;;;;1.02;0.68;;;21.30;60.00;;;;;;5084804;28;20036;-45
2021/11/18 00:44:31;;;;;;;2.85;0.80;;;21.30;60.00;;;;;;5083628;28;20025;-42
2021/11/18 00:46:57;;;;;;;1.13;0.75;;;21.30;60.00;;;;;;5098216;28;20039;-41
2021/11/18 00:49:23;;;;;;;1.20;0.98;;;21.30;60.00;;;;;;5104003;28;20723;-42
2021/11/18 00:51:49;;;;;;;1.00;0.75;;;21.30;59.90;;;;;;5105027;28;20035;-48
2021/11/18 00:54:16;;;;;;;0.90;0.60;;;21.20;59.80;;;;;;5105405;28;20102;-41
2021/11/18 00:56:43;;;;;;;1.55;0.80;;;21.20;59.90;;;;;;5103702;28;20036;-47
2021/11/18 00:59:09;;;;;;;2.00;0.60;;;21.20;59.90;;;;;;5105489;28;20386;-43
2021/11/18 01:01:41;;;;;;;1.33;0.85;;;21.20;60.00;;;;;;5104951;28;20036;-47
2021/11/18 01:04:08;;;;;;;0.88;0.80;;;21.20;60.00;;;;;;5104850;28;20028;-47
2021/11/18 01:06:34;;;;;;;1.63;0.85;;;21.10;59.90;;;;;;5105243;28;20039;-43
2021/11/18 01:09:00;;;;;;;1.15;0.80;;;21.10;59.90;;;;;;5104050;28;20074;-42
2021/11/18 01:11:28;;;;;;;1.27;0.90;;;21.10;59.90;;;;;;5104630;28;20232;-42
2021/11/18 01:13:54;;;;;;;1.15;0.80;;;21.10;59.90;;;;;;5104649;28;20020;-46
2021/11/18 01:16:23;;;;;;;0.63;0.60;;;21.10;60.40;;;;;;5104823;28;20024;-44
2021/11/18 01:18:49;;;;;;;1.10;0.80;;;21.00;59.90;;;;;;5104899;28;20476;-42
2021/11/18 01:21:15;;;;;;;1.17;0.80;;;21.00;59.80;;;;;;5104822;28;20020;-42
2021/11/18 01:23:42;;;;;;;0.80;0.70;;;21.00;59.90;;;;;;5104326;28;20032;-43
2021/11/18 01:26:10;;;;;;;0.90;0.80;;;21.00;59.90;;;;;;5104555;28;20024;-47
2021/11/18 01:28:36;;;;;;;0.77;0.77;;;21.00;59.90;;;;;;5104303;28;20036;-43
2021/11/18 01:31:02;;;;;;;0.90;0.80;;;21.00;59.80;;;;;;5104217;28;20028;-44
2021/11/18 01:33:29;;;;;;;1.85;0.80;;;21.00;59.80;;;;;;5082475;28;20025;-43
2021/11/18 01:35:56;;;;;;;0.88;0.80;;;21.00;59.90;;;;;;5082951;28;20028;-42
2021/11/18 01:38:22;;;;;;;1.50;0.90;;;20.90;59.90;;;;;;5084481;28;20036;-44
2021/11/18 01:40:54;;;;;;;2.33;1.00;;;20.90;59.90;;;;;;5103508;28;20024;-47
2021/11/18 01:43:21;;;;;;;1.20;0.80;;;20.90;59.80;;;;;;5104224;28;20110;-45
2021/11/18 01:45:47;;;;;;;1.67;0.80;;;20.90;59.80;;;;;;5103833;28;20027;-41
2021/11/18 01:48:14;;;;;;;1.65;0.73;;;20.90;59.80;;;;;;5102599;28;20051;-41
2021/11/18 01:50:42;;;;;;;1.00;0.90;;;20.90;60.00;;;;;;5104432;28;20024;-42
2021/11/18 01:53:19;;;;;;;1.00;0.90;;;20.80;59.90;;;;;;5102823;28;20032;-44
2021/11/18 01:55:45;;;;;;;;;;;20.80;59.90;;;;;;5102769;28;20050;-46
2021/11/18 01:58:12;;;;;;;1.20;0.90;;;20.80;59.90;;;;;;5104105;28;19943;-45
2021/11/18 02:00:46;;;;;;;1.03;0.87;;;20.80;59.70;;;;;;5104181;28;20370;-45
2021/11/18 02:03:13;;;;;;;1.10;1.00;;;20.80;59.80;;;;;;5103753;28;20017;-43
2021/11/18 02:05:47;;;;;;;1.80;1.00;;;20.80;59.90;;;;;;5103846;28;20024;-44
2021/11/18 02:08:13;;;;;;;0.70;0.70;;;20.70;59.80;;;;;;5102598;28;20036;-43
2021/11/18 02:10:42;;;;;;;1.30;1.00;;;20.70;59.80;;;;;;5101432;28;20878;-43
2021/11/18 02:13:09;;;;;;;1.27;0.85;;;20.70;59.70;;;;;;5103676;28;20036;-43
2021/11/18 02:15:42;;;;;;;1.05;0.95;;;20.70;59.80;;;;;;5103652;28;20682;-44
2021/11/18 02:18:18;;;;;;;1.10;0.90;;;20.70;59.70;;;;;;5093602;28;20135;-42
2021/11/18 02:20:45;;;;;;;1.10;0.98;;;20.60;59.60;;;;;;5082069;28;20085;-43
2021/11/18 02:23:25;;;;;;;1.83;1.10;;;20.60;59.70;;;;;;5082709;28;20038;-46
2021/11/18 02:25:52;;;;;;;1.13;1.02;;;20.60;59.70;;;;;;5102987;28;20032;-43
2021/11/18 02:28:19;;;;;;;1.10;1.00;;;20.60;59.70;;;;;;5103295;28;20053;-45
2021/11/18 02:30:46;;;;;;;1.55;1.17;;;20.60;59.80;;;;;;5101994;28;20051;-42
2021/11/18 02:33:12;;;;;;;1.25;1.05;;;20.50;59.80;;;;;;5103259;28;20096;-43
2021/11/18 02:35:40;;;;;;;1.80;1.20;;;20.50;59.80;;;;;;5081499;28;20714;-44
2021/11/18 02:38:07;;;;;;;1.38;1.00;;;20.50;59.90;;;;;;5082929;28;20031;-44
2021/11/18 02:40:33;;;;;;;1.25;1.15;;;20.50;59.80;;;;;;5082303;28;20074;-45
2021/11/18 02:43:00;;;;;;;1.40;1.17;;;20.50;59.90;;;;;;5082802;28;20037;-43
2021/11/18 02:45:28;;;;;;;1.30;1.20;;;20.40;59.90;;;;;;5081817;28;20017;-43
2021/11/18 02:47:55;;;;;;;1.90;1.20;;;20.40;60.00;;;;;;5103130;28;20039;-44
2021/11/18 02:50:24;;;;;;;1.57;1.03;;;20.40;59.90;;;;;;5103207;28;20036;-48
2021/11/18 02:52:50;;;;;;;1.30;1.08;;;20.30;59.80;;;;;;5101615;28;20043;-47
2021/11/18 02:55:20;;;;;;;1.55;1.20;;;20.30;59.90;;;;;;5102725;28;20480;-45
2021/11/18 02:57:46;;;;;;;1.65;1.30;;;20.30;59.90;;;;;;5102843;28;20057;-44
2021/11/18 03:00:16;;;;;;;2.40;1.10;;;20.30;60.00;;;;;;5103007;28;20024;-44
2021/11/18 03:02:42;;;;;;;1.10;1.00;;;20.30;60.20;;;;;;5102797;28;20308;-45
2021/11/18 03:05:08;;;;;;;1.63;1.05;;;20.40;60.40;;;;;;5102535;28;20012;-46
2021/11/18 03:07:34;;;;;;;1.02;0.93;;;20.40;60.30;;;;;;5102570;28;20024;-46
2021/11/18 03:10:01;;;;;;;1.30;1.20;;;20.30;60.30;;;;;;5087518;28;20028;-42
2021/11/18 03:12:27;;;;;;;1.42;1.30;;;20.30;60.30;;;;;;5082301;28;20052;-42
2021/11/18 03:14:53;;;;;;;1.73;1.00;;;20.30;60.30;;;;;;5082488;28;20074;-43
2021/11/18 03:17:19;;;;;;;1.63;1.10;;;20.20;60.30;;;;;;5096940;28;20476;-42
2021/11/18 03:19:45;;;;;;;1.20;1.08;;;20.20;60.30;;;;;;5102680;28;20028;-48
2021/11/18 03:22:12;;;;;;;1.55;1.10;;;20.20;60.50;;;;;;5102408;28;20039;-43
2021/11/18 03:24:38;;;;;;;1.17;1.07;;;20.20;60.60;;;;;;5102654;28;20020;-45
2021/11/18 03:27:04;;;;;;;1.15;1.05;;;20.30;60.80;;;;;;5080981;28;20028;-45
2021/11/18 03:29:32;;;;;;;1.20;1.10;;;20.30;60.70;;;;;;5085131;28;20028;-44
2021/11/18 03:31:58;;;;;;;;;;;20.30;60.60;;;;;;5102775;28;20073;-46
2021/11/18 03:34:25;;;;;;;1.48;1.00;;;20.30;60.60;;;;;;5102197;28;19907;-43
2021/11/18 03:36:51;;;;;;;2.65;1.13;;;20.20;60.50;;;;;;5102065;28;20054;-43
2021/11/18 03:39:18;;;;;;;1.50;1.40;;;20.20;60.50;;;;;;5101100;28;20110;-45
2021/11/18 03:41:46;;;;;;;2.50;1.50;;;20.20;60.60;;;;;;5102465;28;20044;-45
2021/11/18 03:44:13;;;;;;;1.20;1.10;;;20.20;60.60;;;;;;5100926;28;20035;-47
2021/11/18 03:46:43;;;;;;;1.30;1.15;;;20.20;60.70;;;;;;5090252;28;20044;-42
2021/11/18 03:49:10;;;;;;;1.30;1.20;;;20.30;61.00;;;;;;5081011;28;20083;-43
2021/11/18 03:51:36;;;;;;;1.40;1.27;;;20.20;61.10;;;;;;5083568;28;20571;-46
2021/11/18 03:54:07;;;;;;;1.20;1.10;;;20.30;60.90;;;;;;5087435;28;20028;-42
2021/11/18 03:56:39;;;;;;;1.30;1.20;;;20.20;60.70;;;;;;5102466;28;20095;-44
2021/11/18 03:59:07;;;;;;;1.40;1.20;;;20.20;60.70;;;;;;5106200;28;20020;-45
2021/11/18 04:01:35;;;;;;;1.83;1.17;;;20.20;60.70;;;;;;5106174;28;20031;-43
2021/11/18 04:04:05;;;;;;;1.30;1.10;;;20.20;60.70;;;;;;5106217;28;20109;-43
2021/11/18 04:06:32;;;;;;;1.80;1.40;;;20.10;60.60;;;;;;5105889;28;20031;-44
2021/11/18 04:08:58;;;;;;;1.65;1.45;;;20.10;60.70;;;;;;5100923;28;20404;-47
2021/11/18 04:11:25;;;;;;;1.45;1.25;;;20.20;61.00;;;;;;5084250;28;20040;-45
2021/11/18 04:13:52;;;;;;;1.85;1.60;;;20.20;61.10;;;;;;5091467;28;20044;-50
2021/11/18 04:16:18;;;;;;;2.43;1.40;;;20.20;61.70;;;;;;5105848;28;20391;-44
2021/11/18 04:18:44;;;;;;;2.03;1.20;;;20.20;60.80;;;;;;5104531;28;20028;-43
2021/11/18 04:21:10;;;;;;;1.80;1.50;;;20.20;60.90;;;;;;5105889;28;20349;-44
2021/11/18 04:23:37;;;;;;;1.83;1.63;;;20.20;60.80;;;;;;5105767;28;20039;-43
2021/11/18 04:26:04;;;;;;;1.90;1.70;;;20.10;60.70;;;;;;5105242;28;20189;-46
2021/11/18 04:28:31;;;;;;;2.10;1.75;;;20.10;60.70;;;;;;5105945;28;20042;-49
2021/11/18 04:31:10;;;;;;;1.70;1.58;;;20.20;61.10;;;;;;5105491;28;20024;-45
2021/11/18 04:33:36;;;;;;;2.38;1.85;;;20.20;61.20;;;;;;5105605;28;20833;-45
2021/11/18 04:36:04;;;;;;;1.70;1.57;;;20.20;61.10;;;;;;5105680;28;20020;-48
2021/11/18 04:38:30;;;;;;;2.13;1.65;;;20.20;61.70;;;;;;5104095;28;20032;-41
2021/11/18 04:40:56;;;;;;;2.58;1.90;;;20.20;60.90;;;;;;5085072;28;20032;-41
2021/11/18 04:43:23;;;;;;;2.10;1.90;;;20.20;60.90;;;;;;5086609;28;20051;-43
2021/11/18 04:45:49;;;;;;;3.63;1.93;;;20.20;60.80;;;;;;5105432;28;20061;-48
2021/11/18 04:48:15;;;;;;;2.65;1.88;;;20.20;60.90;;;;;;5103744;28;20107;-41
2021/11/18 04:50:41;;;;;;;2.25;2.00;;;20.20;61.10;;;;;;5105251;28;20024;-45
2021/11/18 04:53:08;;;;;;;1.88;1.60;;;20.20;61.30;;;;;;5105128;28;20039;-49
2021/11/18 04:55:34;;;;;;;2.03;1.80;;;20.20;61.20;;;;;;5105129;28;20053;-43
2021/11/18 04:58:00;;;;;;;2.70;1.63;;;20.20;61.00;;;;;;5104521;28;20031;-42
2021/11/18 05:00:29;;;;;;;2.67;1.80;;;20.20;61.00;;;;;;5103536;28;20095;-48
2021/11/18 05:02:55;;;;;;;3.13;1.83;;;20.20;61.00;;;;;;5104367;28;20050;-42
2021/11/18 05:05:22;;;;;;;2.15;1.60;;;20.20;61.00;;;;;;5103470;28;20036;-43
2021/11/18 05:07:48;;;;;;;2.30;1.67;;;20.20;61.00;;;;;;5103152;28;20399;-47
2021/11/18 05:10:14;;;;;;;2.58;1.90;;;20.20;61.20;;;;;;5089076;28;20032;-44
2021/11/18 05:12:41;;;;;;;2.03;1.83;;;20.20;61.40;;;;;;5082830;28;20029;-45
2021/11/18 05:15:09;;;;;;;1.80;1.67;;;20.20;61.30;;;;;;5100643;28;20080;-43
2021/11/18 05:17:36;;;;;;;1.85;1.55;;;20.20;61.10;;;;;;5104556;28;20043;-47
2021/11/18 05:20:02;;;;;;;1.95;1.70;;;20.20;61.00;;;;;;5103380;28;20050;-44
2021/11/18 05:22:28;;;;;;;4.30;2.00;;;20.20;61.00;;;;;;5104520;28;20028;-45
2021/11/18 05:24:55;;;;;;;2.30;1.80;;;20.20;61.00;;;;;;5102274;28;20032;-45
2021/11/18 05:27:21;;;;;;;2.25;2.03;;;20.20;61.10;;;;;;5103964;28;20020;-46
2021/11/18 05:29:47;;;;;;;2.17;1.73;;;20.20;61.30;;;;;;5099427;28;20074;-45
2021/11/18 05:32:13;;;;;;;1.95;1.63;;;20.20;61.40;;;;;;5084291;28;20765;-47
2021/11/18 05:34:40;;;;;;;2.08;1.63;;;20.30;61.40;;;;;;5084211;28;20038;-47
2021/11/18 05:37:06;;;;;;;2.00;1.67;;;20.20;61.10;;;;;;5083844;28;20036;-45
2021/11/18 05:39:34;;;;;;;2.38;1.67;;;20.20;61.10;;;;;;5092781;28;20027;-43
2021/11/18 05:42:00;;;;;;;2.00;1.80;;;20.20;61.10;;;;;;5104253;28;20107;-43
2021/11/18 05:44:26;;;;;;;2.35;1.77;;;20.20;61.00;;;;;;5097127;28;20046;-45
2021/11/18 05:46:52;;;;;;;1.63;1.52;;;20.20;61.10;;;;;;5083808;28;20035;-45
2021/11/18 05:49:19;;;;;;;2.15;1.67;;;20.20;61.30;;;;;;5083774;28;20025;-42
2021/11/18 05:51:47;;;;;;;1.37;1.27;;;20.20;61.30;;;;;;5083726;28;20037;-43
2021/11/18 05:54:13;;;;;;;2.22;1.95;;;20.20;61.10;;;;;;5083568;28;20043;-43
2021/11/18 05:56:39;;;;;;;2.75;1.90;;;20.20;61.00;;;;;;5083648;28;20036;-44
2021/11/18 05:59:05;;;;;;;2.47;1.65;;;20.20;61.00;;;;;;5093377;28;20031;-45
2021/11/18 06:01:32;;;;;;;2.13;1.90;;;20.20;61.00;;;;;;5103924;28;20067;-43
2021/11/18 06:03:58;;;;;;;2.45;2.05;;;20.10;60.90;;;;;;5103692;28;20028;-45
2021/11/18 06:06:25;;;;;;;2.95;2.28;;;20.20;61.10;;;;;;5102344;28;20090;-45
2021/11/18 06:08:52;;;;;;;2.05;1.80;;;20.20;61.30;;;;;;5102430;28;20056;-45
2021/11/18 06:11:19;;;;;;;2.63;1.88;;;20.20;61.30;;;;;;5103471;28;20024;-43
2021/11/18 06:13:50;;;;;;;;;;;20.20;61.00;;;;;;5086710;28;20044;-45
2021/11/18 06:16:17;;;;;;;2.40;1.77;;;20.20;61.00;;;;;;5082431;28;19908;-44
2021/11/18 06:18:44;;;;;;;3.10;2.15;;;20.20;61.00;;;;;;5082990;28;20044;-47
2021/11/18 06:21:10;;;;;;;1.77;1.58;;;20.20;61.00;;;;;;5083234;28;20021;-43
2021/11/18 06:23:36;;;;;;;2.47;1.90;;;20.10;61.10;;;;;;5091844;28;20054;-44
2021/11/18 06:26:02;;;;;;;2.22;1.63;;;20.20;61.10;;;;;;5103383;28;20107;-48
2021/11/18 06:28:28;;;;;;;3.00;2.05;;;20.20;61.30;;;;;;5103000;28;20020;-43
2021/11/18 06:30:57;;;;;;;1.77;1.60;;;20.20;61.30;;;;;;5103188;28;20061;-42
2021/11/18 06:33:23;;;;;;;2.85;2.13;;;20.30;61.20;;;;;;5103391;28;20051;-44
2021/11/18 06:35:51;;;;;;;2.47;2.00;;;20.20;61.00;;;;;;5101854;28;20046;-45
2021/11/18 06:38:17;;;;;;;2.53;2.08;;;20.20;61.10;;;;;;5103003;28;20043;-44
2021/11/18 06:40:49;;;;;;;2.95;2.20;;;20.20;61.00;;;;;;5101915;28;20028;-44
2021/11/18 06:43:16;;;;;;;2.17;1.98;;;20.20;61.10;;;;;;5101740;28;20740;-45
2021/11/18 06:45:45;;;;;;;2.53;1.98;;;20.20;61.30;;;;;;5103127;28;20020;-48
2021/11/18 06:48:15;;;;;;;2.20;2.00;;;20.20;61.30;;;;;;5102993;28;20432;-43
2021/11/18 06:50:41;;;;;;;3.78;2.08;;;20.20;61.30;;;;;;5102902;28;20048;-45
2021/11/18 06:53:07;;;;;;;2.47;2.03;;;20.20;61.10;;;;;;5102836;28;20024;-43
2021/11/18 06:55:34;;;;;;;2.37;1.97;;;20.20;61.10;;;;;;5101484;28;20027;-46
2021/11/18 06:58:00;;;;;;;3.13;2.17;;;20.20;61.10;;;;;;5101373;28;20820;-44
2021/11/18 07:00:26;;;;;;;2.40;2.20;;;20.10;61.00;;;;;;5099929;28;20020;-46
2021/11/18 07:02:52;;;;;;;2.08;1.90;;;20.10;61.10;;;;;;5081162;28;20037;-45
2021/11/18 07:05:19;;;;;;;3.17;2.15;;;20.20;61.40;;;;;;5082475;28;20107;-47
2021/11/18 07:07:45;;;;;;;2.53;1.87;;;20.20;61.30;;;;;;5082347;28;20049;-45
2021/11/18 07:10:11;;;;;;;2.58;2.00;;;20.30;61.40;;;;;;5096559;28;20600;-45
2021/11/18 07:12:37;;;;;;;2.17;1.97;;;20.20;61.10;;;;;;5102351;28;20111;-43
2021/11/18 07:15:06;;;;;;;2.40;1.98;;;20.20;61.10;;;;;;5102487;28;20292;-41
2021/11/18 07:17:32;;;;;;;2.75;2.28;;;20.20;61.10;;;;;;5101154;28;20035;-42
2021/11/18 07:19:59;;;;;;;3.17;2.30;;;20.10;61.00;;;;;;5102176;28;20020;-46
2021/11/18 07:22:27;;;;;;;2.60;2.40;;;20.10;61.10;;;;;;5102667;28;20035;-46
2021/11/18 07:24:58;;;;;;;3.15;2.20;;;20.20;61.20;;;;;;5102736;28;20268;-42
2021/11/18 07:27:24;;;;;;;2.33;1.90;;;20.20;61.30;;;;;;5101953;28;20028;-43
2021/11/18 07:29:50;;;;;;;1.80;1.33;;;20.20;61.30;;;;;;5102164;28;20035;-42
2021/11/18 07:32:17;;;;;;;2.70;1.67;;;20.20;61.10;;;;;;5092041;28;20067;-47
2021/11/18 07:34:43;;;;;;;2.83;2.45;;;20.20;61.10;;;;;;5080862;28;20020;-45
2021/11/18 07:37:09;;;;;;;2.67;2.10;;;20.20;61.10;;;;;;5089349;28;20412;-43
2021/11/18 07:39:35;;;;;;;2.83;2.30;;;20.10;61.00;;;;;;5100039;28;20028;-49
2021/11/18 07:42:01;;;;;;;3.03;2.13;;;20.20;61.20;;;;;;5102236;28;20928;-43
2021/11/18 07:44:27;;;;;;;2.63;2.00;;;20.20;61.30;;;;;;5101105;28;20032;-44
2021/11/18 07:46:54;;;;;;;2.22;1.95;;;20.30;61.30;;;;;;5102306;28;20032;-45
2021/11/18 07:49:20;;;;;;;2.60;2.00;;;20.30;61.30;;;;;;5101991;28;20032;-43
2021/11/18 07:51:46;;;;;;;2.60;1.95;;;20.20;61.00;;;;;;5102119;28;20036;-46
2021/11/18 07:54:15;;;;;;;3.20;2.15;;;20.20;61.00;;;;;;5101861;28;20040;-48
2021/11/18 07:56:41;;;;;;;2.83;2.35;;;20.20;61.00;;;;;;5101760;28;20027;-43
2021/11/18 07:59:08;;;;;;;2.85;2.15;;;20.10;60.90;;;;;;5102177;28;20024;-44
2021/11/18 08:01:34;;;;;;;2.70;1.90;;;20.20;61.20;;;;;;5102046;28;20038;-46
2021/11/18 08:04:01;;;;;;;3.47;2.03;;;20.20;61.20;;;;;;5102307;28;20039;-46
2021/11/18 08:06:28;;;;;;;2.17;1.70;;;20.20;61.30;;;;;;5101908;28;20072;-46
2021/11/18 08:08:55;;;;;;;3.30;1.80;;;20.30;61.20;;;;;;5101176;28;20050;-44
2021/11/18 08:11:27;;;;;;;3.22;1.83;;;20.20;61.00;;;;;;5101987;28;20342;-42
2021/11/18 08:13:53;;;;;;;2.67;1.85;;;20.20;61.10;;;;;;5101852;28;20036;-43
2021/11/18 08:16:20;;;;;;;2.83;2.08;;;20.10;60.90;;;;;;5101995;28;20073;-48
2021/11/18 08:18:46;;;;;;;2.40;2.03;;;20.10;61.10;;;;;;5102201;28;20431;-47
2021/11/18 08:21:13;;;;;;;2.30;1.98;;;20.20;61.20;;;;;;5101894;28;20024;-46
2021/11/18 08:23:39;;;;;;;2.03;1.80;;;20.20;61.20;;;;;;5102186;28;20043;-42
2021/11/18 08:26:07;;;;;;;2.97;1.98;;;20.20;61.30;;;;;;5101668;28;20059;-48
2021/11/18 08:28:33;;;;;;;4.22;2.05;;;20.20;61.10;;;;;;5100626;28;20030;-44
2021/11/18 08:31:01;;;;;;;2.35;2.03;;;20.20;61.00;;;;;;5101940;28;20097;-46
2021/11/18 08:33:28;;;;;;;2.78;1.73;;;20.20;61.00;;;;;;5101871;28;20040;-45
2021/11/18 08:35:54;;;;;;;2.80;2.17;;;20.10;61.00;;;;;;5101705;28;20093;-42
2021/11/18 08:38:20;;;;;;;2.15;1.75;;;20.10;61.00;;;;;;5101483;28;20024;-43
2021/11/18 08:40:51;;;;;;;1.70;1.60;;;20.20;61.30;;;;;;5084558;28;20025;-44
2021/11/18 08:43:17;;;;;;;3.72;1.85;;;20.20;61.20;;;;;;5084983;28;20142;-44
2021/11/18 08:45:44;;;;;;;2.17;1.63;;;20.20;61.20;;;;;;5087563;28;20097;-45
2021/11/18 08:48:10;;;;;;;2.33;1.73;;;20.20;61.00;;;;;;5105239;28;20042;-41
2021/11/18 08:50:37;;;;;;;3.00;2.13;;;20.20;61.00;;;;;;5103814;28;20020;-45
2021/11/18 08:53:03;;;;;;;2.50;1.70;;;20.10;61.00;;;;;;5105187;28;20108;-48
2021/11/18 08:55:33;;;;;;;2.72;2.10;;;20.20;61.10;;;;;;5105333;28;20027;-44
2021/11/18 08:57:59;;;;;;;2.53;1.98;;;20.20;61.20;;;;;;5103302;28;20064;-45
2021/11/18 09:00:41;;;;;;;1.93;1.53;;;20.20;61.30;;;;;;5103691;28;20074;-44
2021/11/18 09:03:07;;;;;;;2.92;1.85;;;20.20;61.00;;;;;;5104988;28;20046;-42
2021/11/18 09:05:34;;;;;;;3.13;2.13;;;20.20;61.00;;;;;;5104982;28;20050;-42
2021/11/18 09:08:00;;;;;;;3.10;2.08;;;20.20;61.00;;;;;;5104540;28;20115;-42
2021/11/18 09:10:26;;;;;;;3.23;2.07;;;20.20;61.10;;;;;;5103875;28;20035;-44
2021/11/18 09:12:53;;;;;;;2.30;1.97;;;20.10;61.00;;;;;;5103010;28;20035;-41
2021/11/18 09:15:20;;;;;;;2.03;1.60;;;20.10;61.20;;;;;;5104822;28;20046;-44
2021/11/18 09:17:46;;;;;;;;;;;20.20;61.20;;;;;;5105063;28;20133;-46
2021/11/18 09:20:14;;;;;;;2.10;1.60;;;20.20;61.20;;;;;;5104719;28;19964;-43
2021/11/18 09:22:39;;;;;;;;;;;20.20;61.10;;;;;;5105135;28;20024;-45
2021/11/18 09:25:09;;;;;;;3.90;1.90;;;20.20;61.00;;;;;;5104485;28;19921;-45
2021/11/18 09:27:38;;;;;;;2.78;2.00;;;20.20;61.00;;;;;;5089297;28;20047;-44
2021/11/18 09:30:09;;;;;;;2.53;1.70;;;20.10;61.00;;;;;;5090320;28;20028;-42
2021/11/18 09:32:36;;;;;;;2.55;1.90;;;20.10;61.10;;;;;;5104665;28;20036;-45
2021/11/18 09:35:05;;;;;;;2.63;2.00;;;20.20;61.20;;;;;;5104299;28;20032;-42
2021/11/18 09:37:32;;;;;;;2.90;2.15;;;20.20;61.20;;;;;;5104165;28;20036;-45
2021/11/18 09:39:58;;;;;;;2.75;2.10;;;20.20;61.20;;;;;;5090877;28;20054;-43
2021/11/18 09:42:30;;;;;;;2.42;1.90;;;20.20;61.10;;;;;;5083929;28;20054;-44
2021/11/18 09:45:12;;;;;;;2.58;1.85;;;20.20;61.00;;;;;;5082733;28;20020;-46
2021/11/18 09:48:03;;;;;;;2.10;1.80;;;20.20;61.00;;;;;;5102437;28;20028;-43
2021/11/18 09:50:31;;;;;;;2.40;1.83;;;20.10;61.00;;;;;;5102949;28;20035;-44
2021/11/18 09:53:38;;;;;;;2.22;1.92;;;20.10;61.10;;;;;;5102555;28;20062;-45
2021/11/18 09:56:55;;;;;;;1.90;1.70;;;20.20;61.20;;;;;;5104149;28;20030;-44
2021/11/18 09:59:48;;;;;;;2.03;1.73;;;20.20;61.20;;;;;;5099366;28;20492;-45
2021/11/18 10:02:36;;;;;;;2.47;1.80;;;20.20;61.10;;;;;;5102850;28;20088;-44
2021/11/18 10:05:16;;;;;;;2.40;1.83;;;20.20;61.00;;;;;;5104084;28;20035;-42
2021/11/18 10:07:53;;;;;;;2.17;1.80;;;20.10;61.00;;;;;;5103479;28;20133;-45
2021/11/18 10:10:27;;;;;;;2.33;1.87;;;20.10;61.10;;;;;;5102888;28;20508;-46
2021/11/18 10:13:32;;;;;;;2.35;1.90;;;20.10;61.20;;;;;;5102254;28;20040;-42
2021/11/18 10:16:03;;;;;;;2.72;2.00;;;20.20;61.90;;;;;;5095933;28;20093;-44
2021/11/18 10:18:58;;;;;;;3.80;1.95;;;20.20;61.10;;;;;;5096878;28;20044;-43
2021/11/18 10:21:29;;;;;;;2.22;1.77;;;20.20;61.00;;;;;;5102908;28;20040;-46
2021/11/18 10:23:58;;;;;;;2.33;1.95;;;20.20;61.00;;;;;;5103729;28;20032;-45
2021/11/18 10:26:32;;;;;;;3.13;1.95;;;20.10;60.90;;;;;;5103461;28;20032;-45
2021/11/18 10:29:01;;;;;;;3.30;1.92;;;20.10;61.00;;;;;;5103145;28;20031;-44
2021/11/18 10:31:50;;;;;;;3.08;1.80;;;20.20;61.10;;;;;;5103418;28;20028;-43
2021/11/18 10:34:51;;;;;;;2.35;1.88;;;20.20;61.10;;;;;;5103563;28;20027;-44
2021/11/18 10:37:42;;;;;;;2.97;1.83;;;20.20;61.00;;;;;;5103166;28;20026;-44
2021/11/18 10:40:24;;;;;;;2.63;2.03;;;20.20;60.90;;;;;;5088553;28;20024;-46
2021/11/18 10:42:58;;;;;;;2.80;1.88;;;20.20;61.00;;;;;;5082819;28;20029;-46
2021/11/18 10:45:46;;;;;;;2.80;1.95;;;20.10;61.00;;;;;;5082941;28;20035;-46
2021/11/18 10:48:20;;;;;;;3.00;2.22;;;20.20;61.10;;;;;;5097072;28;20090;-42
2021/11/18 10:50:52;;;;;;;2.47;1.90;;;20.20;61.10;;;;;;5087744;28;20562;-43
2021/11/18 10:53:29;;;;;;;2.33;1.92;;;20.30;61.10;;;;;;5101536;28;20128;-44
2021/11/18 10:56:18;;;;;;;2.28;1.70;;;20.20;60.90;;;;;;5102758;28;20032;-48
2021/11/18 10:59:00;;;;;;;2.05;1.88;;;20.20;60.90;;;;;;5102538;28;20034;-43
2021/11/18 11:01:27;;;;;;;2.45;2.22;;;20.10;60.80;;;;;;5101211;28;20024;-43
2021/11/18 11:03:57;;;;;;;3.13;2.00;;;20.10;60.90;;;;;;5103053;28;20048;-44
2021/11/18 11:06:31;;;;;;;2.55;2.25;;;20.20;61.10;;;;;;5101319;28;20053;-43
2021/11/18 11:09:10;;;;;;;2.65;1.90;;;20.20;61.10;;;;;;5096764;28;20048;-45
2021/11/18 11:12:09;;;;;;;2.10;1.90;;;20.20;61.00;;;;;;5082262;28;20024;-45
2021/11/18 11:14:56;;;;;;;2.53;2.00;;;20.20;60.90;;;;;;5082327;28;20050;-43
2021/11/18 11:17:32;;;;;;;2.35;2.10;;;20.20;60.80;;;;;;5097853;28;20028;-42
2021/11/18 11:20:07;;;;;;;2.67;1.92;;;20.10;60.90;;;;;;5086940;28;20436;-44
2021/11/18 11:22:40;;;;;;;2.75;2.05;;;20.10;61.00;;;;;;5065225;28;20436;-44
2021/11/18 11:25:06;;;;;;;2.42;1.88;;;20.20;61.10;;;;;;5064876;28;20118;-47
2021/11/18 11:27:53;;;;;;;2.85;1.92;;;20.20;61.90;;;;;;5082064;28;20055;-46
2021/11/18 11:30:50;;;;;;;3.63;2.67;;;20.20;60.90;;;;;;5091496;28;20031;-45
2021/11/18 11:33:22;;;;;;;3.17;2.08;;;20.20;60.90;;;;;;5098128;28;20039;-42
2021/11/18 11:35:58;;;;;;;2.97;2.03;;;20.20;60.90;;;;;;5100963;28;20031;-42
2021/11/18 11:39:02;;;;;;;2.60;2.40;;;20.10;60.80;;;;;;5100382;28;20453;-43
2021/11/18 11:42:09;;;;;;;2.75;2.10;;;20.10;61.00;;;;;;5043718;28;20077;-43
2021/11/18 11:44:57;;;;;;;2.55;1.80;;;20.20;61.10;;;;;;5022898;28;20033;-43
2021/11/18 11:47:42;;;;;;;;;;;20.30;61.20;;;;;;5056765;28;20054;-46
2021/11/18 11:50:19;;;;;;;3.10;2.25;;;20.20;60.90;;;;;;5079133;28;19977;-42
2021/11/18 11:53:26;;;;;;;2.47;2.03;;;20.20;60.90;;;;;;5046842;28;20044;-45
2021/11/18 11:56:08;;;;;;;2.72;2.30;;;20.10;60.90;;;;;;5003024;28;20034;-42
2021/11/18 11:58:37;;;;;;;2.58;2.38;;;20.10;61.00;;;;;;5003294;28;20038;-46
2021/11/18 12:01:20;;;;;;;3.53;2.10;;;20.20;61.10;;;;;;4987914;28;20044;-47
2021/11/18 12:03:56;;;;;;;2.55;1.88;;;20.20;61.10;;;;;;4999718;28;20035;-46
2021/11/18 12:06:40;;;;;;;2.72;2.00;;;20.20;60.80;;;;;;4999843;28;20043;-42
2021/11/18 12:09:17;;;;;;;3.25;2.25;;;20.20;60.70;;;;;;4968894;28;20109;-45
2021/11/18 12:11:57;;;;;;;2.80;2.20;;;20.10;60.80;;;;;;5005251;28;20821;-43
2021/11/18 12:14:30;;;;;;;2.10;1.77;;;20.10;60.90;;;;;;5011780;28;20653;-46
2021/11/18 12:17:17;;;;;;;2.78;2.10;;;20.20;61.00;;;;;;5027148;28;20045;-44
2021/11/18 12:19:47;;;;;;;2.40;2.13;;;20.20;61.10;;;;;;5027896;28;20145;-47
2021/11/18 12:22:35;;;;;;;2.40;1.95;;;20.30;61.80;;;;;;5026579;28;20018;-45
2021/11/18 12:25:06;;;;;;;2.67;2.30;;;20.30;60.90;;;;;;5042736;28;20101;-44
2021/11/18 12:27:34;;;;;;;3.92;2.40;;;20.20;60.80;;;;;;5042585;28;20036;-47
2021/11/18 12:30:35;;;;;;;2.42;2.03;;;20.20;60.80;;;;;;5071006;28;20032;-45
2021/11/18 12:33:09;;;;;;;2.90;2.13;;;20.10;60.90;;;;;;5084353;28;20528;-43
2021/11/18 12:35:56;;;;;;;3.20;2.25;;;20.20;61.00;;;;;;5104204;28;20032;-45
2021/11/18 12:38:40;;;;;;;2.78;1.88;;;20.20;61.00;;;;;;5105409;28;20084;-43
2021/11/18 12:41:26;;;;;;;2.85;2.17;;;20.30;60.90;;;;;;5105415;28;20063;-45
2021/11/18 12:44:01;;;;;;;2.60;2.28;;;20.20;60.70;;;;;;5097928;28;20028;-45
2021/11/18 12:46:49;;;;;;;2.17;1.92;;;20.20;60.80;;;;;;5103959;28;20031;-46
2021/11/18 12:49:20;;;;;;;2.65;1.95;;;20.10;60.80;;;;;;5105273;28;20074;-43
2021/11/18 12:52:04;;;;;;;2.28;1.90;;;20.20;61.00;;;;;;5105277;28;20078;-42
2021/11/18 12:54:57;;;;;;;3.40;2.17;;;20.20;61.00;;;;;;5103994;28;20020;-44
2021/11/18 12:57:39;;;;;;;2.22;1.70;;;20.30;61.00;;;;;;5105024;28;20443;-45
2021/11/18 13:00:14;;;;;;;2.20;2.00;;;20.20;60.80;;;;;;5104861;28;20031;-46
2021/11/18 13:02:41;;;;;;;2.60;2.05;;;20.20;60.80;;;;;;5104891;28;20499;-47
2021/11/18 13:05:11;;;;;;;4.05;2.53;;;20.20;60.80;;;;;;5105235;28;20028;-48